ADDS METAR Data INFO
IDs: Format: Raw Decoded Include TAF

Data at: 2340 UTC 15 Dec 2017

KSBA 152253Z 26007KT 10SM FU CLR 22/M01 A3002 RMK AO2 SLP167 T02221006 $
KSBA 152153Z VRB03KT 7SM FU CLR 23/M04 A3004 RMK AO2 SLP171 T02331039 $
KSBA 152053Z VRB03KT 8SM FU CLR 24/M04 A3006 RMK AO2 SLP179 T02391039 58027 $
KSBA 151953Z 25004KT 7SM FU CLR 23/01 A3010 RMK AO2 SLP192 T02330006
KSBA 151853Z 24006KT 9SM FU CLR 23/M04 A3013 RMK AO2 SLP202 T02281044
KSBA 151753Z 00000KT 5SM FU CLR 21/M02 A3014 RMK AO2 SLP206 T02061022 10206 20017 51007
KSBA 151653Z 00000KT 6SM FU CLR 12/00 A3014 RMK AO2 SLP206 T01220000
KSBA 151553Z 00000KT 6SM FU CLR 04/M02 A3012 RMK AO2 SLP200 T00441017
KSBA 151453Z 00000KT 5SM FU CLR 03/M02 A3012 RMK AO2 SLP199 T00331022 53008
KSBA 151353Z AUTO 00000KT 6SM FU CLR 03/M02 A3011 RMK AO2 SLP196 T00281022
KSBA 151253Z AUTO 00000KT 7SM FU CLR 02/M03 A3010 RMK AO2 SLP192 T00221028
KSBA 151153Z AUTO 06003KT 7SM FU CLR 04/M02 A3010 RMK AO2 SLP191 T00391017 10072 20017 58003
KSBA 151053Z AUTO 00000KT 7SM FU CLR 02/M02 A3011 RMK AO2 SLP194 T00171022
KSBA 150953Z AUTO 00000KT 7SM FU CLR 05/M01 A3010 RMK AO2 SLP192 T00501006
KSBA 150853Z AUTO 00000KT 7SM FU CLR 04/M01 A3011 RMK AO2 SLP194 T00391006 51005
KSBA 150753Z AUTO 00000KT 6SM FU CLR 04/M01 A3010 RMK AO2 SLP192 T00391006 402110011
KSBA 150653Z AUTO 03004KT 7SM FU CLR 05/01 A3010 RMK AO2 SLP192 T00500006
KSBA 150553Z 00000KT 6SM FU CLR 06/03 A3009 RMK AO2 SLP188 T00610028 10172 20056 51012
KSBA 150453Z 00000KT 6SM FU CLR 07/04 A3007 RMK AO2 SLP182 T00720044
KSBA 150353Z 00000KT 6SM FU CLR 08/04 A3008 RMK AO2 SLP184 T00780044
KSBA 150253Z 00000KT 8SM FU CLR 08/04 A3005 RMK AO2 SLP176 T00780039 51014
KSBA 150153Z 00000KT 8SM FU OVC065 11/06 A3004 RMK AO2 SLP173 T01110056
KSBA 150053Z 27005KT 8SM FU OVC060 14/07 A3003 RMK AO2 SLP167 T01390067
KSBA 142353Z 00000KT 8SM FU OVC055 17/07 A3001 RMK AO2 SLP163 T01720067 10211 20161 53004
KSBA 142253Z 28007KT 8SM FU OVC055 17/11 A3001 RMK AO2 SLP162 T01670106
KSBA 142153Z 28006KT 6SM FU FEW050 18/09 A3000 RMK AO2 SLP157 T01830089
KSBA 142053Z 00000KT 6SM FU FEW100 21/07 A3000 RMK AO2 SLP159 T02110072 58017
KSBA 141953Z 00000KT 6SM FU FEW100 19/04 A3002 RMK AO2 SLP167 T01940044
KSBA 141853Z 20005KT 5SM FU CLR 18/08 A3004 RMK AO2 SLP173 T01830078
KSBA 141753Z 12004KT 4SM FU CLR 16/04 A3005 RMK AO2 SLP176 T01610044 10167 20011 53021
KSBA 141653Z 00000KT 4SM FU CLR 12/03 A3003 RMK AO2 SLP169 T01170028
KSBA 141553Z 00000KT 4SM FU CLR 05/01 A3000 RMK AO2 SLP159 T00500006
KSBA 141453Z 00000KT 6SM FU CLR 04/M01 A2999 RMK AO2 SLP155 T00441006 53016
KSBA 141353Z 00000KT 6SM FU FEW039 04/M01 A2997 RMK AO2 SLP147 T00441006
KSBA 141253Z AUTO 06003KT 6SM FU CLR 04/M01 A2995 RMK AO2 SLP142 T00391011
KSBA 141153Z AUTO 00000KT 7SM FU CLR 04/M02 A2994 RMK AO2 SLP140 T00391022 10067 20022 50005